Coastal Inspiration — CFN4970 — position and weather

sailwx.info

Track history (hours):
 
Tides and Currents Weather Stations Pressure Air Temp Water Temp Dewpoint Dewpoint Depression Visibility Wind Speed Wind Dir Waves Ship Positions

Coastal Inspiration

Last reported at 2014-Oct-31 09:12 UTC. Time now 2014-Oct-31 09:46 UTC.
Position N 49°10' W 123°53'.

Length 160 m; draft 6 m.

Type: Passenger vessel. MMSI: 316011408.

Date/timePositionNaut miles runAvg speedWind from/ knotsBaromVisibWave heightAir tempDewpointWater temp
2014-Oct-31 09:12N 49°10' W 123°53'3 2.0
2014-Oct-31 07:33N 49°13' W 123°51'2020.0
2014-Oct-31 06:33N 49°05' W 123°23'1110.9
2014-Oct-31 05:33N 49°00' W 123°08'1313.4
2014-Oct-31 04:33N 49°06' W 123°26'1818.2
2014-Oct-31 03:33N 49°13' W 123°52'0 0.4
2014-Oct-31 02:33N 49°13' W 123°52'1918.7
2014-Oct-31 01:33N 49°06' W 123°25'1212.4
2014-Oct-31 00:33N 49°00' W 123°08'1312.8
2014-Oct-30 23:33N 49°04' W 123°26'1817.6
2014-Oct-30 22:33N 49°13' W 123°50'3 2.5
2014-Oct-30 21:33N 49°12' W 123°53'1818.0
2014-Oct-30 20:33N 49°06' W 123°27'1413.7
2014-Oct-30 19:33N 49°00' W 123°08'1212.4
2014-Oct-30 18:33N 49°04' W 123°26'1817.5
2014-Oct-30 17:33N 49°13' W 123°49'2 1.7
2014-Oct-30 16:33N 49°13' W 123°51'2019.8
2014-Oct-30 15:33N 49°05' W 123°24'1111.3
2014-Oct-30 14:33N 49°00' W 123°08'1515.5
2014-Oct-30 13:33N 49°06' W 123°30'1614.5
2014-Oct-30 12:28N 49°10' W 123°53'0 0.1
2014-Oct-30 11:34N 49°10' W 123°53'0 0.0
2014-Oct-30 09:33N 49°10' W 123°53'0 0.2
2014-Oct-30 07:33N 49°10' W 123°53'1616.5
2014-Oct-30 06:34N 49°07' W 123°29'1515.1
2014-Oct-30 05:33N 49°00' W 123°08'1212.2
2014-Oct-30 04:33N 49°04' W 123°26'1818.3
2014-Oct-30 03:33N 49°13' W 123°50'0 0.4
2014-Oct-30 02:33N 49°13' W 123°51'1818.4
2014-Oct-30 01:33N 49°07' W 123°25'1312.7
2014-Oct-30 00:33N 49°00' W 123°08'1312.7
2014-Oct-29 23:33N 49°04' W 123°26'1817.6
2014-Oct-29 22:34N 49°13' W 123°50'1 1.0
2014-Oct-29 21:33N 49°13' W 123°51'1817.8
2014-Oct-29 20:33N 49°06' W 123°26'1313.4
2014-Oct-29 19:33N 49°00' W 123°08'1211.9
2014-Oct-29 18:33N 49°04' W 123°25'1817.9
2014-Oct-29 17:33N 49°13' W 123°49'2 1.5
2014-Oct-29 16:33N 49°13' W 123°51'1818.0
2014-Oct-29 15:33N 49°06' W 123°25'1313.1
2014-Oct-29 14:33N 49°00' W 123°08'1312.6
2014-Oct-29 13:33N 49°05' W 123°26'1717.5
2014-Oct-29 12:33N 49°13' W 123°50'4 2.8
2014-Oct-29 11:09N 49°10' W 123°53'0 0.0
2014-Oct-29 10:33N 49°10' W 123°53'2 0.7
2014-Oct-29 07:33N 49°12' W 123°53'1919.3
2014-Oct-29 06:33N 49°06' W 123°25'1212.5
2014-Oct-29 05:34N 49°00' W 123°08'1414.2
2014-Oct-29 04:34N 49°05' W 123°28'1716.8
2014-Oct-29 03:32N 49°10' W 123°53'4 3.7
2014-Oct-29 02:33N 49°13' W 123°51'1918.5
2014-Oct-29 01:34N 49°06' W 123°25'1212.2
2014-Oct-29 00:33N 49°00' W 123°08'1313.3
2014-Oct-28 23:33N 49°05' W 123°27'1717.2
2014-Oct-28 22:33N 49°13' W 123°50'1 1.0
2014-Oct-28 21:34N 49°13' W 123°52'1818.1
2014-Oct-28 20:34N 49°06' W 123°26'1312.9
2014-Oct-28 19:33N 49°00' W 123°08'1312.7
2014-Oct-28 18:34N 49°04' W 123°26'1818.2
2014-Oct-28 17:33N 49°13' W 123°50'1 0.8
2014-Oct-28 16:33N 49°13' W 123°51'1818.0
2014-Oct-28 15:33N 49°06' W 123°26'1313.0
2014-Oct-28 14:33N 49°00' W 123°08'1313.0
2014-Oct-28 13:33N 49°05' W 123°27'1817.8
2014-Oct-28 12:33N 49°13' W 123°50'4 4.0
2014-Oct-28 11:32N 49°10' W 123°53'0 0.0
2014-Oct-28 10:32N 49°10' W 123°53'0 0.0
2014-Oct-28 09:31N 49°10' W 123°53'0 0.0
2014-Oct-28 08:31N 49°10' W 123°53'0 0.2
2014-Oct-28 07:33N 49°10' W 123°53'1616.3
2014-Oct-28 06:33N 49°07' W 123°29'1515.2
2014-Oct-28 05:33N 49°00' W 123°08'1211.6
2014-Oct-28 04:33N 49°03' W 123°25'1918.9
2014-Oct-28 03:34N 49°13' W 123°50'2 2.2
2014-Oct-28 02:34N 49°12' W 123°53'1817.9
2014-Oct-28 01:33N 49°06' W 123°27'1414.0
2014-Oct-28 00:33N 49°00' W 123°08'1211.5
2014-Oct-27 23:33N 49°04' W 123°25'1818.5
2014-Oct-27 22:33N 49°13' W 123°49'3 3.4
2014-Oct-27 21:33N 49°11' W 123°53'1717.3
2014-Oct-27 20:33N 49°07' W 123°28'1414.2
2014-Oct-27 19:32N 49°00' W 123°08'1111.3
2014-Oct-27 18:34N 49°03' W 123°24'1918.8
2014-Oct-27 17:34N 49°13' W 123°49'3 2.6
2014-Oct-27 16:33N 49°12' W 123°53'1818.2
2014-Oct-27 15:33N 49°06' W 123°26'1313.4
2014-Oct-27 14:33N 49°00' W 123°08'1212.4
2014-Oct-27 13:33N 49°04' W 123°26'1818.0
2014-Oct-27 12:33N 49°13' W 123°50'4 4.0
2014-Oct-27 11:33N 49°10' W 123°53'0 0.0
2014-Oct-27 10:32N 49°10' W 123°53'0 0.0
2014-Oct-27 09:32N 49°10' W 123°53'0 0.0
2014-Oct-27 08:31N 49°10' W 123°53'1 1.0
2014-Oct-27 07:33N 49°11' W 123°53'1716.8
2014-Oct-27 06:34N 49°07' W 123°28'1514.8
2014-Oct-27 05:33N 49°00' W 123°08'1413.6
2014-Oct-27 04:33N 49°05' W 123°27'1818.0
2014-Oct-27 03:34N 49°13' W 123°52'0 0.3
2014-Oct-27 02:33N 49°13' W 123°52'1918.6
2014-Oct-27 01:34N 49°06' W 123°26'1312.3
2014-Oct-27 00:31N 49°00' W 123°08'1212.9
2014-Oct-26 23:33N 49°04' W 123°26'1818.0
2014-Oct-26 22:33N 49°13' W 123°50'2 1.6
2014-Oct-26 21:34N 49°12' W 123°52'1818.3
2014-Oct-26 20:34N 49°06' W 123°26'1312.9
2014-Oct-26 19:32N 49°00' W 123°08'1312.9
2014-Oct-26 18:33N 49°04' W 123°27'1918.4
2014-Oct-26 17:33N 49°13' W 123°51'3 2.8
2014-Oct-26 16:25N 49°10' W 123°53'0 0.0
2014-Oct-26 15:12N 49°10' W 123°53'0 0.0
2014-Oct-26 14:30N 49°10' W 123°53'0 0.0
2014-Oct-26 13:29N 49°10' W 123°53'0 0.0
2014-Oct-26 12:29N 49°10' W 123°53'0 0.0
2014-Oct-26 11:29N 49°10' W 123°53'0 0.0
2014-Oct-26 10:28N 49°10' W 123°53'0 0.0
2014-Oct-26 09:28N 49°10' W 123°53'0 0.0
2014-Oct-26 08:33N 49°10' W 123°53'0 0.0
2014-Oct-26 07:21N 49°10' W 123°53'0 0.0
2014-Oct-26 06:32N 49°10' W 123°53'0 0.0
2014-Oct-26 05:32N 49°10' W 123°53'0 0.0
2014-Oct-26 04:32N 49°10' W 123°53'0 0.0
2014-Oct-26 03:19N 49°10' W 123°53'0 0.0
2014-Oct-26 01:06N 49°10' W 123°53'0 0.0
2014-Oct-26 00:30N 49°10' W 123°53'7 8.0
2014-Oct-25 23:33N 49°12' W 123°42'2020.4
2014-Oct-25 22:33N 49°01' W 123°16'3 2.8
2014-Oct-25 21:33N 49°00' W 123°12'1818.0
2014-Oct-25 20:33N 49°09' W 123°37'1110.5
2014-Oct-25 19:29N 49°10' W 123°53'1011.1
2014-Oct-25 18:33N 49°10' W 123°38'1818.6
2014-Oct-25 17:34N 49°01' W 123°14'1 0.8
2014-Oct-25 16:34N 48°60' W 123°14'1818.1
2014-Oct-25 15:33N 49°09' W 123°37'11 4.8
2014-Oct-25 13:22N 49°10' W 123°53'0 0.0
2014-Oct-25 12:28N 49°10' W 123°53'0 0.0
2014-Oct-25 11:33N 49°10' W 123°53'0 0.0
2014-Oct-25 10:21N 49°10' W 123°53'0 0.0
2014-Oct-25 09:27N 49°10' W 123°53'0 0.0
2014-Oct-25 08:32N 49°10' W 123°53'1 0.6
2014-Oct-25 07:33N 49°10' W 123°53'1716.8
2014-Oct-25 06:34N 49°07' W 123°28'1514.9
2014-Oct-25 05:34N 49°00' W 123°08'1212.0
2014-Oct-25 04:34N 49°04' W 123°25'1919.2
2014-Oct-25 03:34N 49°13' W 123°51'1 0.7
2014-Oct-25 02:33N 49°13' W 123°50'1919.3
2014-Oct-25 01:33N 49°05' W 123°23'1111.0
2014-Oct-25 00:33N 49°00' W 123°08'1212.4
2014-Oct-24 23:33N 49°04' W 123°26'1817.8
2014-Oct-24 22:33N 49°13' W 123°49'3 2.8
2014-Oct-24 21:33N 49°12' W 123°53'1818.2
2014-Oct-24 20:34N 49°07' W 123°26'1413.5
2014-Oct-24 19:33N 49°00' W 123°08'1212.0
2014-Oct-24 18:33N 49°04' W 123°25'1919.0
2014-Oct-24 17:33N 49°13' W 123°51'0 0.1
2014-Oct-24 16:33N 49°13' W 123°51'1918.5
2014-Oct-24 15:33N 49°06' W 123°25'1211.9
2014-Oct-24 14:31N 49°00' W 123°08'1212.7
2014-Oct-24 13:33N 49°04' W 123°26'1818.1
2014-Oct-24 12:33N 49°13' W 123°50'4 3.8
2014-Oct-24 11:31N 49°10' W 123°53'0 0.0
2014-Oct-24 10:31N 49°10' W 123°53'0 0.0
2014-Oct-24 09:24N 49°10' W 123°53'0 0.0
2014-Oct-24 08:24N 49°10' W 123°53'2 1.9
2014-Oct-24 07:33N 49°11' W 123°53'1818.0
2014-Oct-24 06:33N 49°07' W 123°27'1413.8
2014-Oct-24 05:33N 49°00' W 123°08'1312.6
2014-Oct-24 04:34N 49°04' W 123°26'1818.3
2014-Oct-24 03:33N 49°13' W 123°51'1 0.9
2014-Oct-24 02:33N 49°13' W 123°52'1918.9
2014-Oct-24 01:33N 49°06' W 123°25'1212.3
2014-Oct-24 00:34N 49°00' W 123°08'1312.6
2014-Oct-23 23:33N 49°04' W 123°26'1817.5
2014-Oct-23 22:33N 49°13' W 123°50'1 1.4
2014-Oct-23 21:33N 49°13' W 123°52'1818.2
2014-Oct-23 20:33N 49°06' W 123°26'1312.5
2014-Oct-23 19:31N 49°00' W 123°08'1212.6
2014-Oct-23 18:33N 49°04' W 123°26'1818.5
2014-Oct-23 17:33N 49°13' W 123°50'1 0.8
2014-Oct-23 16:32N 49°13' W 123°51'1818.4
2014-Oct-23 15:33N 49°06' W 123°26'1312.8
2014-Oct-23 14:31N 49°00' W 123°08'1212.4
2014-Oct-23 13:33N 49°04' W 123°25'1818.3
2014-Oct-23 12:33N 49°13' W 123°50'4 3.8
2014-Oct-23 11:30N 49°10' W 123°53'0 0.0
2014-Oct-23 10:33N 49°10' W 123°53'0 0.0
2014-Oct-23 09:29N 49°10' W 123°53'0 0.0
2014-Oct-23 08:23N 49°10' W 123°53'2 2.2
2014-Oct-23 07:33N 49°12' W 123°53'1918.6
2014-Oct-23 06:33N 49°06' W 123°26'1313.1
2014-Oct-23 05:34N 49°00' W 123°08'1110.8
2014-Oct-23 04:33N 49°03' W 123°24'2019.7
2014-Oct-23 03:33N 49°13' W 123°50'1 1.0
2014-Oct-23 02:33N 49°12' W 123°52'1919.2
2014-Oct-23 01:33N 49°06' W 123°25'1212.1
2014-Oct-23 00:34N 49°00' W 123°08'1211.6
2014-Oct-22 23:34N 49°04' W 123°25'1818.1
2014-Oct-22 22:33N 49°13' W 123°49'2 2.0
2014-Oct-22 21:33N 49°13' W 123°52'1717.6
2014-Oct-22 20:34N 49°06' W 123°27'1413.8
2014-Oct-22 19:33N 49°00' W 123°08'1212.3
2014-Oct-22 18:33N 49°04' W 123°26'1817.9
2014-Oct-22 17:33N 49°13' W 123°50'0 0.0
2014-Oct-22 16:33N 49°13' W 123°50'1818.1
2014-Oct-22 15:32N 49°06' W 123°24'1212.0
2014-Oct-22 14:33N 49°00' W 123°08'1313.1
2014-Oct-22 13:33N 49°05' W 123°27'1817.7
2014-Oct-22 12:33N 49°13' W 123°51'3 3.1
2014-Oct-22 11:30N 49°10' W 123°53'0 0.0
2014-Oct-22 10:29N 49°10' W 123°53'0 0.0
2014-Oct-22 09:29N 49°10' W 123°53'0 0.0
2014-Oct-22 08:22N 49°10' W 123°53'0 0.4
2014-Oct-22 07:34N 49°10' W 123°53'1616.0
2014-Oct-22 06:33N 49°07' W 123°29'1515.5
2014-Oct-22 05:33N 49°00' W 123°08'1111.0
2014-Oct-22 04:33N 49°03' W 123°24'1818.3
2014-Oct-22 03:33N 49°13' W 123°48'4 4.3
2014-Oct-22 02:33N 49°10' W 123°53'1716.6
2014-Oct-22 01:33N 49°07' W 123°28'1514.9
2014-Oct-22 00:33N 49°00' W 123°08'1111.5
2014-Oct-21 23:33N 49°04' W 123°25'1818.2
2014-Oct-21 22:33N 49°13' W 123°49'1 1.5
2014-Oct-21 21:33N 49°13' W 123°51'1817.7
2014-Oct-21 20:33N 49°06' W 123°26'1313.0
2014-Oct-21 19:33N 49°00' W 123°08'1212.3
2014-Oct-21 18:33N 49°04' W 123°26'1817.9
2014-Oct-21 17:33N 49°13' W 123°50'1 0.9
2014-Oct-21 16:33N 49°13' W 123°51'1818.0
2014-Oct-21 15:33N 49°06' W 123°25'1312.8
2014-Oct-21 14:34N 49°00' W 123°08'1312.6
2014-Oct-21 13:33N 49°04' W 123°26'1717.5
2014-Oct-21 12:34N 49°13' W 123°49'4 4.1
2014-Oct-21 11:32N 49°10' W 123°53'0 0.0
2014-Oct-21 10:31N 49°10' W 123°53'0 0.0
2014-Oct-21 09:31N 49°10' W 123°53'  
Track history (hours):
 
Tides and Currents Weather Stations Pressure Air Temp Water Temp Dewpoint Dewpoint Depression Visibility Wind Speed Wind Dir Waves Ship Positions

Coastal Inspiration

Last reported at 2014-Oct-31 09:12 UTC. Time now 2014-Oct-31 09:46 UTC.
Position N 49°10' W 123°53'.

Length 160 m; draft 6 m.

Type: Passenger vessel. MMSI: 316011408.

Date/timePositionNaut miles runAvg speedWind from/ knotsBaromVisibWave heightAir tempDewpointWater temp
2014-Oct-31 09:12N 49°10' W 123°53'3 2.0
2014-Oct-31 07:33N 49°13' W 123°51'2020.0
2014-Oct-31 06:33N 49°05' W 123°23'1110.9
2014-Oct-31 05:33N 49°00' W 123°08'1313.4
2014-Oct-31 04:33N 49°06' W 123°26'1818.2
2014-Oct-31 03:33N 49°13' W 123°52'0 0.4
2014-Oct-31 02:33N 49°13' W 123°52'1918.7
2014-Oct-31 01:33N 49°06' W 123°25'1212.4
2014-Oct-31 00:33N 49°00' W 123°08'1312.8
2014-Oct-30 23:33N 49°04' W 123°26'1817.6
2014-Oct-30 22:33N 49°13' W 123°50'3 2.5
2014-Oct-30 21:33N 49°12' W 123°53'1818.0
2014-Oct-30 20:33N 49°06' W 123°27'1413.7
2014-Oct-30 19:33N 49°00' W 123°08'1212.4
2014-Oct-30 18:33N 49°04' W 123°26'1817.5
2014-Oct-30 17:33N 49°13' W 123°49'2 1.7
2014-Oct-30 16:33N 49°13' W 123°51'2019.8
2014-Oct-30 15:33N 49°05' W 123°24'1111.3
2014-Oct-30 14:33N 49°00' W 123°08'1515.5
2014-Oct-30 13:33N 49°06' W 123°30'1614.5
2014-Oct-30 12:28N 49°10' W 123°53'0 0.1
2014-Oct-30 11:34N 49°10' W 123°53'0 0.0
2014-Oct-30 09:33N 49°10' W 123°53'0 0.2
2014-Oct-30 07:33N 49°10' W 123°53'1616.5
2014-Oct-30 06:34N 49°07' W 123°29'1515.1
2014-Oct-30 05:33N 49°00' W 123°08'1212.2
2014-Oct-30 04:33N 49°04' W 123°26'1818.3
2014-Oct-30 03:33N 49°13' W 123°50'0 0.4
2014-Oct-30 02:33N 49°13' W 123°51'1818.4
2014-Oct-30 01:33N 49°07' W 123°25'1312.7
2014-Oct-30 00:33N 49°00' W 123°08'1312.7
2014-Oct-29 23:33N 49°04' W 123°26'1817.6
2014-Oct-29 22:34N 49°13' W 123°50'1 1.0
2014-Oct-29 21:33N 49°13' W 123°51'1817.8
2014-Oct-29 20:33N 49°06' W 123°26'1313.4
2014-Oct-29 19:33N 49°00' W 123°08'1211.9
2014-Oct-29 18:33N 49°04' W 123°25'1817.9
2014-Oct-29 17:33N 49°13' W 123°49'2 1.5
2014-Oct-29 16:33N 49°13' W 123°51'1818.0
2014-Oct-29 15:33N 49°06' W 123°25'1313.1
2014-Oct-29 14:33N 49°00' W 123°08'1312.6
2014-Oct-29 13:33N 49°05' W 123°26'1717.5
2014-Oct-29 12:33N 49°13' W 123°50'4 2.8
2014-Oct-29 11:09N 49°10' W 123°53'0 0.0
2014-Oct-29 10:33N 49°10' W 123°53'2 0.7
2014-Oct-29 07:33N 49°12' W 123°53'1919.3
2014-Oct-29 06:33N 49°06' W 123°25'1212.5
2014-Oct-29 05:34N 49°00' W 123°08'1414.2
2014-Oct-29 04:34N 49°05' W 123°28'1716.8
2014-Oct-29 03:32N 49°10' W 123°53'4 3.7
2014-Oct-29 02:33N 49°13' W 123°51'1918.5
2014-Oct-29 01:34N 49°06' W 123°25'1212.2
2014-Oct-29 00:33N 49°00' W 123°08'1313.3
2014-Oct-28 23:33N 49°05' W 123°27'1717.2
2014-Oct-28 22:33N 49°13' W 123°50'1 1.0
2014-Oct-28 21:34N 49°13' W 123°52'1818.1
2014-Oct-28 20:34N 49°06' W 123°26'1312.9
2014-Oct-28 19:33N 49°00' W 123°08'1312.7
2014-Oct-28 18:34N 49°04' W 123°26'1818.2
2014-Oct-28 17:33N 49°13' W 123°50'1 0.8
2014-Oct-28 16:33N 49°13' W 123°51'1818.0
2014-Oct-28 15:33N 49°06' W 123°26'1313.0
2014-Oct-28 14:33N 49°00' W 123°08'1313.0
2014-Oct-28 13:33N 49°05' W 123°27'1817.8
2014-Oct-28 12:33N 49°13' W 123°50'4 4.0
2014-Oct-28 11:32N 49°10' W 123°53'0 0.0
2014-Oct-28 10:32N 49°10' W 123°53'0 0.0
2014-Oct-28 09:31N 49°10' W 123°53'0 0.0
2014-Oct-28 08:31N 49°10' W 123°53'0 0.2
2014-Oct-28 07:33N 49°10' W 123°53'1616.3
2014-Oct-28 06:33N 49°07' W 123°29'1515.2
2014-Oct-28 05:33N 49°00' W 123°08'1211.6
2014-Oct-28 04:33N 49°03' W 123°25'1918.9
2014-Oct-28 03:34N 49°13' W 123°50'2 2.2
2014-Oct-28 02:34N 49°12' W 123°53'1817.9
2014-Oct-28 01:33N 49°06' W 123°27'1414.0
2014-Oct-28 00:33N 49°00' W 123°08'1211.5
2014-Oct-27 23:33N 49°04' W 123°25'1818.5
2014-Oct-27 22:33N 49°13' W 123°49'3 3.4
2014-Oct-27 21:33N 49°11' W 123°53'1717.3
2014-Oct-27 20:33N 49°07' W 123°28'1414.2
2014-Oct-27 19:32N 49°00' W 123°08'1111.3
2014-Oct-27 18:34N 49°03' W 123°24'1918.8
2014-Oct-27 17:34N 49°13' W 123°49'3 2.6
2014-Oct-27 16:33N 49°12' W 123°53'1818.2
2014-Oct-27 15:33N 49°06' W 123°26'1313.4
2014-Oct-27 14:33N 49°00' W 123°08'1212.4
2014-Oct-27 13:33N 49°04' W 123°26'1818.0
2014-Oct-27 12:33N 49°13' W 123°50'4 4.0
2014-Oct-27 11:33N 49°10' W 123°53'0 0.0
2014-Oct-27 10:32N 49°10' W 123°53'0 0.0
2014-Oct-27 09:32N 49°10' W 123°53'0 0.0
2014-Oct-27 08:31N 49°10' W 123°53'1 1.0
2014-Oct-27 07:33N 49°11' W 123°53'1716.8
2014-Oct-27 06:34N 49°07' W 123°28'1514.8
2014-Oct-27 05:33N 49°00' W 123°08'1413.6
2014-Oct-27 04:33N 49°05' W 123°27'1818.0
2014-Oct-27 03:34N 49°13' W 123°52'0 0.3
2014-Oct-27 02:33N 49°13' W 123°52'1918.6
2014-Oct-27 01:34N 49°06' W 123°26'1312.3
2014-Oct-27 00:31N 49°00' W 123°08'1212.9
2014-Oct-26 23:33N 49°04' W 123°26'1818.0
2014-Oct-26 22:33N 49°13' W 123°50'2 1.6
2014-Oct-26 21:34N 49°12' W 123°52'1818.3
2014-Oct-26 20:34N 49°06' W 123°26'1312.9
2014-Oct-26 19:32N 49°00' W 123°08'1312.9
2014-Oct-26 18:33N 49°04' W 123°27'1918.4
2014-Oct-26 17:33N 49°13' W 123°51'3 2.8
2014-Oct-26 16:25N 49°10' W 123°53'0 0.0
2014-Oct-26 15:12N 49°10' W 123°53'0 0.0
2014-Oct-26 14:30N 49°10' W 123°53'0 0.0
2014-Oct-26 13:29N 49°10' W 123°53'0 0.0
2014-Oct-26 12:29N 49°10' W 123°53'0 0.0
2014-Oct-26 11:29N 49°10' W 123°53'0 0.0
2014-Oct-26 10:28N 49°10' W 123°53'0 0.0
2014-Oct-26 09:28N 49°10' W 123°53'0 0.0
2014-Oct-26 08:33N 49°10' W 123°53'0 0.0
2014-Oct-26 07:21N 49°10' W 123°53'0 0.0
2014-Oct-26 06:32N 49°10' W 123°53'0 0.0
2014-Oct-26 05:32N 49°10' W 123°53'0 0.0
2014-Oct-26 04:32N 49°10' W 123°53'0 0.0
2014-Oct-26 03:19N 49°10' W 123°53'0 0.0
2014-Oct-26 01:06N 49°10' W 123°53'0 0.0
2014-Oct-26 00:30N 49°10' W 123°53'7 8.0
2014-Oct-25 23:33N 49°12' W 123°42'2020.4
2014-Oct-25 22:33N 49°01' W 123°16'3 2.8
2014-Oct-25 21:33N 49°00' W 123°12'1818.0
2014-Oct-25 20:33N 49°09' W 123°37'1110.5
2014-Oct-25 19:29N 49°10' W 123°53'1011.1
2014-Oct-25 18:33N 49°10' W 123°38'1818.6
2014-Oct-25 17:34N 49°01' W 123°14'1 0.8
2014-Oct-25 16:34N 48°60' W 123°14'1818.1
2014-Oct-25 15:33N 49°09' W 123°37'11 4.8
2014-Oct-25 13:22N 49°10' W 123°53'0 0.0
2014-Oct-25 12:28N 49°10' W 123°53'0 0.0
2014-Oct-25 11:33N 49°10' W 123°53'0 0.0
2014-Oct-25 10:21N 49°10' W 123°53'0 0.0
2014-Oct-25 09:27N 49°10' W 123°53'0 0.0
2014-Oct-25 08:32N 49°10' W 123°53'1 0.6
2014-Oct-25 07:33N 49°10' W 123°53'1716.8
2014-Oct-25 06:34N 49°07' W 123°28'1514.9
2014-Oct-25 05:34N 49°00' W 123°08'1212.0
2014-Oct-25 04:34N 49°04' W 123°25'1919.2
2014-Oct-25 03:34N 49°13' W 123°51'1 0.7
2014-Oct-25 02:33N 49°13' W 123°50'1919.3
2014-Oct-25 01:33N 49°05' W 123°23'1111.0
2014-Oct-25 00:33N 49°00' W 123°08'1212.4
2014-Oct-24 23:33N 49°04' W 123°26'1817.8
2014-Oct-24 22:33N 49°13' W 123°49'3 2.8
2014-Oct-24 21:33N 49°12' W 123°53'1818.2
2014-Oct-24 20:34N 49°07' W 123°26'1413.5
2014-Oct-24 19:33N 49°00' W 123°08'1212.0
2014-Oct-24 18:33N 49°04' W 123°25'1919.0
2014-Oct-24 17:33N 49°13' W 123°51'0 0.1
2014-Oct-24 16:33N 49°13' W 123°51'1918.5
2014-Oct-24 15:33N 49°06' W 123°25'1211.9
2014-Oct-24 14:31N 49°00' W 123°08'1212.7
2014-Oct-24 13:33N 49°04' W 123°26'1818.1
2014-Oct-24 12:33N 49°13' W 123°50'4 3.8
2014-Oct-24 11:31N 49°10' W 123°53'0 0.0
2014-Oct-24 10:31N 49°10' W 123°53'0 0.0
2014-Oct-24 09:24N 49°10' W 123°53'0 0.0
2014-Oct-24 08:24N 49°10' W 123°53'2 1.9
2014-Oct-24 07:33N 49°11' W 123°53'1818.0
2014-Oct-24 06:33N 49°07' W 123°27'1413.8
2014-Oct-24 05:33N 49°00' W 123°08'1312.6
2014-Oct-24 04:34N 49°04' W 123°26'1818.3
2014-Oct-24 03:33N 49°13' W 123°51'1 0.9
2014-Oct-24 02:33N 49°13' W 123°52'1918.9
2014-Oct-24 01:33N 49°06' W 123°25'1212.3
2014-Oct-24 00:34N 49°00' W 123°08'1312.6
2014-Oct-23 23:33N 49°04' W 123°26'1817.5
2014-Oct-23 22:33N 49°13' W 123°50'1 1.4
2014-Oct-23 21:33N 49°13' W 123°52'1818.2
2014-Oct-23 20:33N 49°06' W 123°26'1312.5
2014-Oct-23 19:31N 49°00' W 123°08'1212.6
2014-Oct-23 18:33N 49°04' W 123°26'1818.5
2014-Oct-23 17:33N 49°13' W 123°50'1 0.8
2014-Oct-23 16:32N 49°13' W 123°51'1818.4
2014-Oct-23 15:33N 49°06' W 123°26'1312.8
2014-Oct-23 14:31N 49°00' W 123°08'1212.4
2014-Oct-23 13:33N 49°04' W 123°25'1818.3
2014-Oct-23 12:33N 49°13' W 123°50'4 3.8
2014-Oct-23 11:30N 49°10' W 123°53'0 0.0
2014-Oct-23 10:33N 49°10' W 123°53'0 0.0
2014-Oct-23 09:29N 49°10' W 123°53'0 0.0
2014-Oct-23 08:23N 49°10' W 123°53'2 2.2
2014-Oct-23 07:33N 49°12' W 123°53'1918.6
2014-Oct-23 06:33N 49°06' W 123°26'1313.1
2014-Oct-23 05:34N 49°00' W 123°08'1110.8
2014-Oct-23 04:33N 49°03' W 123°24'2019.7
2014-Oct-23 03:33N 49°13' W 123°50'1 1.0
2014-Oct-23 02:33N 49°12' W 123°52'1919.2
2014-Oct-23 01:33N 49°06' W 123°25'1212.1
2014-Oct-23 00:34N 49°00' W 123°08'1211.6
2014-Oct-22 23:34N 49°04' W 123°25'1818.1
2014-Oct-22 22:33N 49°13' W 123°49'2 2.0
2014-Oct-22 21:33N 49°13' W 123°52'1717.6
2014-Oct-22 20:34N 49°06' W 123°27'1413.8
2014-Oct-22 19:33N 49°00' W 123°08'1212.3
2014-Oct-22 18:33N 49°04' W 123°26'1817.9
2014-Oct-22 17:33N 49°13' W 123°50'0 0.0
2014-Oct-22 16:33N 49°13' W 123°50'1818.1
2014-Oct-22 15:32N 49°06' W 123°24'1212.0
2014-Oct-22 14:33N 49°00' W 123°08'1313.1
2014-Oct-22 13:33N 49°05' W 123°27'1817.7
2014-Oct-22 12:33N 49°13' W 123°51'3 3.1
2014-Oct-22 11:30N 49°10' W 123°53'0 0.0
2014-Oct-22 10:29N 49°10' W 123°53'0 0.0
2014-Oct-22 09:29N 49°10' W 123°53'0 0.0
2014-Oct-22 08:22N 49°10' W 123°53'0 0.4
2014-Oct-22 07:34N 49°10' W 123°53'1616.0
2014-Oct-22 06:33N 49°07' W 123°29'1515.5
2014-Oct-22 05:33N 49°00' W 123°08'1111.0
2014-Oct-22 04:33N 49°03' W 123°24'1818.3
2014-Oct-22 03:33N 49°13' W 123°48'4 4.3
2014-Oct-22 02:33N 49°10' W 123°53'1716.6
2014-Oct-22 01:33N 49°07' W 123°28'1514.9
2014-Oct-22 00:33N 49°00' W 123°08'1111.5
2014-Oct-21 23:33N 49°04' W 123°25'1818.2
2014-Oct-21 22:33N 49°13' W 123°49'1 1.5
2014-Oct-21 21:33N 49°13' W 123°51'1817.7
2014-Oct-21 20:33N 49°06' W 123°26'1313.0
2014-Oct-21 19:33N 49°00' W 123°08'1212.3
2014-Oct-21 18:33N 49°04' W 123°26'1817.9
2014-Oct-21 17:33N 49°13' W 123°50'1 0.9
2014-Oct-21 16:33N 49°13' W 123°51'1818.0
2014-Oct-21 15:33N 49°06' W 123°25'1312.8
2014-Oct-21 14:34N 49°00' W 123°08'1312.6
2014-Oct-21 13:33N 49°04' W 123°26'1717.5
2014-Oct-21 12:34N 49°13' W 123°49'4 4.1
2014-Oct-21 11:32N 49°10' W 123°53'0 0.0
2014-Oct-21 10:31N 49°10' W 123°53'0 0.0
2014-Oct-21 09:31N 49°10' W 123°53'  

Dump ship's entire track history